Time;durP1;ratioP1;P1;durP2;ratioP2;P2;SDS_P1;SDS_P2;PMS_P1;PMS_P2;Temp;Humidity;BMP_temperature;BMP_pressure;BME280_temperature;BME280_humidity;BME280_pressure;Samples;Min_cycle;Max_cycle;Signal;HPM_P1;HPM_P2
2022/01/21 00:01:15;;;;;;;3.43;2.40;;;;;;;12.99;42.38;101319.38;4927361;29;20146;-79
2022/01/21 00:03:44;;;;;;;6.70;3.40;;;;;;;13.14;42.44;101338.16;4924346;29;20068;-78
2022/01/21 00:06:11;;;;;;;4.87;2.37;;;;;;;12.76;42.74;101297.47;4927305;29;20581;-79
2022/01/21 00:08:40;;;;;;;3.23;1.10;;;;;;;13.11;42.49;101333.09;4922691;29;20055;-76
2022/01/21 00:11:08;;;;;;;10.93;3.67;;;;;;;13.30;42.07;101338.19;4920391;29;20111;-76
2022/01/21 00:13:36;;;;;;;6.47;2.60;;;;;;;13.29;42.08;101331.75;4924299;29;20047;-80
2022/01/21 00:16:13;;;;;;;7.83;3.63;;;;;;;13.13;41.86;101310.38;4927912;29;20106;-76
2022/01/21 00:18:52;;;;;;;5.33;2.63;;;;;;;13.22;42.31;101328.34;4936782;29;20127;-75
2022/01/21 00:32:22;;;;;;;2.43;1.80;;;;;;;12.88;41.90;101250.38;4931865;29;20095;-77
2022/01/21 00:34:49;;;;;;;4.23;2.80;;;;;;;13.22;42.23;101306.75;4926623;29;20112;-77
2022/01/21 00:37:16;;;;;;;7.97;3.97;;;;;;;13.21;42.24;101310.69;4918978;29;20146;-77
2022/01/21 00:39:48;;;;;;;6.47;2.23;;;;;;;13.20;42.07;101306.19;4960091;28;20168;-76
2022/01/21 00:43:10;;;;;;;7.03;3.07;;;;;;;13.19;42.26;101300.84;4928817;29;20466;-81
2022/01/21 00:45:03;;;;;;;6.20;4.03;;;;;;;13.19;42.15;101307.31;4930959;29;20048;-82
2022/01/21 00:47:30;;;;;;;5.20;2.60;;;;;;;13.18;42.14;101297.22;4926331;29;20090;-79
2022/01/21 00:49:57;;;;;;;12.27;4.00;;;;;;;13.10;42.40;101294.13;4925586;29;20139;-79
2022/01/21 00:52:24;;;;;;;4.53;2.93;;;;;;;13.09;42.22;101300.84;4930776;29;20135;-80
2022/01/21 00:54:51;;;;;;;8.47;3.20;;;;;;;13.10;42.43;101291.34;4962130;28;20079;-76
2022/01/21 00:57:18;;;;;;;9.43;3.93;;;;;;;13.17;42.08;101300.31;4929339;29;20147;-77
2022/01/21 00:59:44;;;;;;;10.17;3.73;;;;;;;12.93;42.21;101264.41;4933357;29;20085;-78
2022/01/21 01:02:13;;;;;;;5.63;3.13;;;;;;;12.89;42.33;101256.81;4927140;29;20146;-79
2022/01/21 01:04:40;;;;;;;8.50;3.73;;;;;;;12.97;42.67;101289.91;4924687;29;20127;-78
2022/01/21 01:07:08;;;;;;;6.07;3.43;;;;;;;12.68;42.99;101261.56;4929760;29;20079;-75
2022/01/21 01:09:35;;;;;;;4.40;2.70;;;;;;;12.53;43.39;101266.00;4933390;29;20079;-76
2022/01/21 01:20:04;;;;;;;4.97;2.60;;;;;;;12.28;44.64;101289.19;4927672;29;20091;-77
2022/01/21 01:22:42;;;;;;;7.70;2.57;;;;;;;11.97;44.70;101245.38;4957868;28;20147;-80
2022/01/21 01:27:55;;;;;;;4.43;2.20;;;;;;;12.11;45.00;101268.97;4934599;29;20056;-78
2022/01/21 01:30:25;;;;;;;7.47;4.57;;;;;;;12.00;44.95;101268.06;4930161;29;20492;-78
2022/01/21 01:32:56;;;;;;;9.95;5.32;;;;;;;11.69;45.50;101232.59;4931945;29;20082;-75
2022/01/21 01:35:25;;;;;;;8.73;4.17;;;;;;;12.06;45.20;101271.72;4949254;29;20060;-75
2022/01/21 01:51:20;;;;;;;3.43;1.97;;;;;;;11.95;45.79;101276.44;4953962;29;20052;-80
2022/01/21 01:54:07;;;;;;;7.17;3.20;;;;;;;12.00;45.53;101279.28;4974387;28;20076;-81
2022/01/21 01:56:39;;;;;;;3.53;2.57;;;;;;;11.87;45.59;101254.56;4952794;29;20056;-78
2022/01/21 01:59:06;;;;;;;2.70;1.73;;;;;;;11.83;45.31;101242.22;4945846;29;20066;-79
2022/01/21 02:01:33;;;;;;;4.90;2.30;;;;;;;12.05;45.10;101270.88;4944993;29;20063;-78
2022/01/21 02:04:01;;;;;;;2.33;1.83;;;;;;;12.06;45.31;101294.94;4933598;29;20055;-79
2022/01/21 02:06:28;;;;;;;9.73;3.50;;;;;;;12.29;44.84;101306.81;4927828;29;20078;-80
2022/01/21 02:08:55;;;;;;;5.83;2.83;;;;;;;11.83;44.79;101222.63;4923371;29;20150;-80
2022/01/21 02:11:22;;;;;;;3.00;1.83;;;;;;;12.05;44.79;101276.47;4927871;29;20147;-80
2022/01/21 02:13:56;;;;;;;6.67;3.20;;;;;;;12.31;44.71;101302.66;4935472;29;20082;-77
2022/01/21 02:21:40;;;;;;;4.43;2.23;;;;;;;12.17;45.16;101303.41;4922453;29;20126;-69
2022/01/21 02:24:13;;;;;;;5.47;3.22;;;;;;;12.32;44.52;101297.88;4918495;29;20459;-71
2022/01/21 02:26:41;;;;;;;3.43;2.03;;;;;;;12.40;44.44;101293.69;4920871;29;20052;-70
2022/01/21 02:29:10;;;;;;;8.23;3.13;;;;;;;12.31;44.65;101301.81;4928976;29;20505;-70
2022/01/21 02:31:39;;;;;;;3.53;2.50;;;;;;;12.20;44.88;101302.84;4922162;29;20090;-80
2022/01/21 02:34:07;;;;;;;5.90;3.20;;;;;;;12.23;44.77;101293.91;4926160;29;20078;-71
2022/01/21 02:36:35;;;;;;;5.17;2.50;;;;;;;12.25;44.77;101297.28;4924692;29;20749;-74
2022/01/21 02:39:03;;;;;;;3.93;2.00;;;;;;;11.79;45.02;101244.69;4922348;29;20206;-75
2022/01/21 02:41:31;;;;;;;4.63;1.90;;;;;;;12.01;44.71;101280.09;4933295;29;20131;-76
2022/01/21 02:43:57;;;;;;;3.53;2.67;;;;;;;12.16;44.66;101298.94;4963782;28;20067;-77
2022/01/21 02:46:26;;;;;;;2.63;1.90;;;;;;;12.03;44.77;101295.53;4924208;29;20483;-77
2022/01/21 02:48:54;;;;;;;6.70;2.83;;;;;;;12.06;45.02;101297.75;4924454;29;20106;-76
2022/01/21 02:51:21;;;;;;;8.83;2.63;;;;;;;11.81;45.33;101272.41;4924245;29;20305;-78
2022/01/21 02:56:18;;;;;;;2.70;1.63;;;;;;;11.79;45.74;101283.03;4925405;29;20153;-78
2022/01/21 02:58:46;;;;;;;3.10;1.67;;;;;;;11.85;45.51;101282.81;4927745;29;20079;-79
2022/01/21 03:01:15;;;;;;;3.10;1.63;;;;;;;11.79;45.65;101277.41;4927641;29;20055;-78
2022/01/21 03:03:43;;;;;;;1.83;1.17;;;;;;;11.98;45.38;101292.69;4929933;29;20052;-79
2022/01/21 03:06:15;;;;;;;6.00;3.30;;;;;;;11.89;45.46;101279.47;4933869;29;20086;-78
2022/01/21 03:08:44;;;;;;;3.57;1.93;;;;;;;11.93;45.27;101283.41;4928472;29;20146;-79
2022/01/21 03:11:12;;;;;;;5.20;2.17;;;;;;;11.94;45.36;101290.72;4924103;29;20115;-79
2022/01/21 03:13:42;;;;;;;8.13;2.93;;;;;;;11.93;45.32;101273.09;4927677;29;20829;-79
2022/01/21 03:16:10;;;;;;;6.67;3.13;;;;;;;11.58;45.54;101228.91;4935349;29;20098;-78
2022/01/21 03:18:37;;;;;;;3.90;2.00;;;;;;;11.48;45.76;101226.03;4930887;29;20048;-77
2022/01/21 03:21:04;;;;;;;3.33;2.00;;;;;;;11.70;46.05;101274.31;4927326;29;20527;-77
2022/01/21 03:23:31;;;;;;;1.87;1.43;;;;;;;11.59;46.18;101294.94;4924930;29;20103;-80
2022/01/21 03:25:58;;;;;;;5.33;2.53;;;;;;;11.50;46.47;101308.59;4925961;29;20102;-78
2022/01/21 03:28:25;;;;;;;3.03;2.07;;;;;;;11.40;46.38;101255.38;4925672;29;20051;-78
2022/01/21 03:30:55;;;;;;;2.83;1.47;;;;;;;11.60;46.23;101269.50;4931714;29;20123;-78
2022/01/21 03:33:24;;;;;;;3.13;1.97;;;;;;;11.44;46.65;101276.09;4926664;29;20048;-78
2022/01/21 03:35:53;;;;;;;0.83;0.83;;;;;;;11.45;46.70;101272.16;4923747;29;20130;-78
2022/01/21 03:38:26;;;;;;;1.57;1.30;;;;;;;11.42;46.60;101261.56;4924868;29;20139;-79
2022/01/21 03:40:54;;;;;;;5.33;2.73;;;;;;;11.53;46.48;101271.69;4925293;29;20330;-76
2022/01/21 03:43:23;;;;;;;2.70;1.50;;;;;;;11.29;46.36;101234.88;4920642;29;20244;-77
2022/01/21 03:45:51;;;;;;;5.07;2.03;;;;;;;11.52;46.57;101294.31;4922239;29;20047;-77
2022/01/21 03:48:19;;;;;;;2.20;1.70;;;;;;;11.41;46.83;101271.03;4922713;29;20056;-74
2022/01/21 03:50:47;;;;;;;2.30;1.43;;;;;;;11.14;47.12;101260.78;4921051;29;20154;-75
2022/01/21 03:53:14;;;;;;;1.57;1.30;;;;;;;11.26;47.44;101294.13;4923671;29;20483;-75
2022/01/21 03:55:40;;;;;;;3.63;1.53;;;;;;;11.06;47.42;101264.06;4924498;29;20516;-77
2022/01/21 03:58:10;;;;;;;1.03;0.83;;;;;;;11.30;47.39;101269.28;4922987;29;20111;-77
2022/01/21 04:00:49;;;;;;;5.80;1.70;;;;;;;11.25;47.45;101277.63;4921268;29;20426;-75
2022/01/21 04:03:16;;;;;;;3.90;2.38;;;;;;;11.32;46.95;101261.47;4925282;29;20141;-74
2022/01/21 04:05:43;;;;;;;2.03;1.30;;;;;;;11.21;47.52;101282.06;4928098;29;20055;-72
2022/01/21 04:08:11;;;;;;;3.17;1.80;;;;;;;11.42;46.97;101288.66;4929884;29;20142;-71
2022/01/21 04:10:41;;;;;;;3.60;1.87;;;;;;;11.42;46.79;101275.53;4952963;28;20437;-72
2022/01/21 04:13:17;;;;;;;3.42;2.03;;;;;;;11.28;47.33;101277.06;4922541;29;20055;-78
2022/01/21 04:15:49;;;;;;;3.77;1.73;;;;;;;11.33;47.01;101274.34;4922185;28;22936;-74
2022/01/21 04:18:18;;;;;;;1.67;1.27;;;;;;;11.49;46.39;101284.53;4923179;29;21049;-78
2022/01/21 04:20:47;;;;;;;2.90;1.23;;;;;;;11.26;47.44;101279.31;4931756;29;20048;-77
2022/01/21 04:23:18;;;;;;;1.43;1.10;;;;;;;10.89;47.98;101255.78;4932244;29;20594;-76
2022/01/21 04:25:47;;;;;;;1.67;1.20;;;;;;;10.98;47.93;101275.72;4920632;29;20043;-78
2022/01/21 04:28:14;;;;;;;2.10;1.00;;;;;;;10.81;48.18;101270.25;4921944;28;20357;-74
2022/01/21 04:30:42;;;;;;;3.20;1.63;;;;;;;10.96;47.95;101268.72;4923221;29;20054;-76
2022/01/21 04:33:09;;;;;;;1.70;1.27;;;;;;;11.05;47.78;101278.31;4923682;29;20048;-70
2022/01/21 04:35:36;;;;;;;1.97;1.00;;;;;;;10.96;48.03;101275.13;4922778;29;20051;-73
2022/01/21 04:38:06;;;;;;;1.40;1.03;;;;;;;10.90;48.37;101290.16;4920327;29;20075;-77
2022/01/21 04:40:38;;;;;;;;;;;;;;;10.79;48.39;101285.59;4924325;29;20138;-78
2022/01/21 04:48:37;;;;;;;1.07;0.80;;;;;;;10.86;48.26;101277.84;4925662;29;20518;-80
2022/01/21 04:53:41;;;;;;;2.70;0.70;;;;;;;10.80;47.62;101248.16;4923411;29;20062;-75
2022/01/21 04:56:08;;;;;;;1.07;0.97;;;;;;;11.05;47.35;101273.56;4934925;29;20186;-77
2022/01/21 04:58:35;;;;;;;0.77;0.73;;;;;;;11.19;47.19;101278.69;4956081;28;20083;-78
2022/01/21 05:01:05;;;;;;;2.23;1.30;;;;;;;11.21;47.03;101279.25;4961034;28;20090;-78
2022/01/21 05:03:33;;;;;;;1.95;1.10;;;;;;;10.91;46.91;101239.63;4933869;29;20078;-75
2022/01/21 05:06:01;;;;;;;4.43;1.10;;;;;;;11.17;47.18;101286.50;4931725;29;20130;-72
2022/01/21 05:08:40;;;;;;;6.30;1.03;;;;;;;11.18;46.74;101261.09;4934039;29;20136;-77
2022/01/21 05:11:07;;;;;;;2.93;1.03;;;;;;;11.21;47.02;101284.84;4934436;29;20055;-79
2022/01/21 05:13:41;;;;;;;1.47;1.00;;;;;;;11.09;46.93;101268.28;4934767;29;20103;-76
2022/01/21 05:18:45;;;;;;;3.87;1.17;;;;;;;11.09;46.84;101257.94;4927378;29;20044;-77
2022/01/21 05:21:12;;;;;;;2.40;1.47;;;;;;;11.38;46.38;101291.13;4930209;29;20139;-79
2022/01/21 05:23:39;;;;;;;1.80;1.07;;;;;;;11.46;46.23;101296.25;4930296;29;20134;-78
2022/01/21 05:26:06;;;;;;;2.13;1.10;;;;;;;11.31;46.55;101296.13;4930217;29;20134;-77
2022/01/21 05:28:33;;;;;;;2.37;1.00;;;;;;;11.15;46.94;101298.81;4948778;28;20083;-76
2022/01/21 05:31:00;;;;;;;3.13;1.43;;;;;;;10.95;46.74;101267.03;4923047;29;20220;-77
2022/01/21 05:33:27;;;;;;;1.30;0.93;;;;;;;11.01;46.86;101266.81;4929848;29;20055;-76
2022/01/21 05:35:54;;;;;;;1.40;1.30;;;;;;;11.25;46.25;101300.84;4934325;29;20491;-77
2022/01/21 05:38:20;;;;;;;1.57;1.20;;;;;;;11.09;46.87;101291.47;4927739;29;20448;-77
2022/01/21 05:40:47;;;;;;;0.60;0.60;;;;;;;10.87;46.87;101265.53;4934310;29;20087;-76
2022/01/21 05:43:14;;;;;;;1.13;0.90;;;;;;;11.13;46.89;101301.00;4934333;29;20130;-76
2022/01/21 05:48:27;;;;;;;0.50;0.50;;;;;;;10.83;47.48;101289.53;4932579;29;20125;-75
2022/01/21 05:50:53;;;;;;;1.87;0.80;;;;;;;10.85;47.75;101295.72;4937547;29;20142;-74
2022/01/21 05:53:22;;;;;;;3.73;1.17;;;;;;;10.76;47.72;101298.13;4934476;29;20083;-75
2022/01/21 05:55:49;;;;;;;0.63;0.50;;;;;;;10.68;47.88;101302.25;4964355;28;20123;-77
2022/01/21 05:58:16;;;;;;;2.13;1.53;;;;;;;10.60;47.50;101276.75;4961504;28;20406;-76
2022/01/21 06:00:43;;;;;;;0.87;0.70;;;;;;;10.82;47.48;101307.44;4928182;29;20128;-80
2022/01/21 06:03:12;;;;;;;0.77;0.60;;;;;;;10.40;47.85;101272.63;4931449;29;20053;-80
2022/01/21 06:05:40;;;;;;;3.10;1.33;;;;;;;10.54;48.16;101312.16;4939583;29;20135;-78
2022/01/21 06:08:07;;;;;;;0.40;0.40;;;;;;;10.58;48.10;101310.53;4933836;29;20047;-78
2022/01/21 06:10:34;;;;;;;1.93;1.23;;;;;;;10.55;48.09;101308.25;4931575;29;20091;-73
2022/01/21 06:13:00;;;;;;;1.10;0.70;;;;;;;10.58;48.05;101306.88;4933756;29;20138;-74
2022/01/21 06:15:27;;;;;;;0.57;0.57;;;;;;;10.58;48.17;101318.06;4929087;29;20064;-74
2022/01/21 06:17:54;;;;;;;1.40;0.80;;;;;;;10.38;48.31;101290.75;4931197;29;20563;-77
2022/01/21 06:20:21;;;;;;;2.80;1.00;;;;;;;10.62;47.96;101308.88;4929741;29;20444;-79
2022/01/21 06:22:48;;;;;;;0.47;0.47;;;;;;;10.46;48.38;101312.63;4929332;29;20094;-80
2022/01/21 06:25:16;;;;;;;0.80;0.63;;;;;;;10.33;48.41;101308.28;4932792;29;20051;-79
2022/01/21 06:27:44;;;;;;;1.47;0.90;;;;;;;10.50;47.69;101297.03;4935408;29;20134;-80
2022/01/21 06:30:13;;;;;;;0.95;0.73;;;;;;;10.28;48.15;101282.25;4945912;28;20515;-77
2022/01/21 06:32:41;;;;;;;1.50;0.80;;;;;;;10.41;48.38;101316.19;4927922;29;20098;-79
2022/01/21 06:35:09;;;;;;;0.77;0.70;;;;;;;10.43;48.36;101315.94;4926645;29;20138;-80
2022/01/21 06:37:37;;;;;;;0.47;0.47;;;;;;;10.37;48.57;101325.34;4932825;29;20059;-79
2022/01/21 06:40:06;;;;;;;1.73;0.50;;;;;;;10.40;48.23;101313.69;4930927;29;20093;-76
2022/01/21 06:42:33;;;;;;;1.80;1.00;;;;;;;10.29;48.10;101292.28;4933382;29;20086;-76
2022/01/21 06:45:01;;;;;;;1.30;0.97;;;;;;;10.28;48.49;101312.94;4929122;29;20072;-73
2022/01/21 06:47:29;;;;;;;1.43;0.87;;;;;;;10.24;48.77;101323.75;4921725;29;20134;-66
2022/01/21 06:49:58;;;;;;;1.03;0.80;;;;;;;10.46;48.01;101323.81;4927284;29;20061;-68
2022/01/21 06:52:28;;;;;;;1.10;1.00;;;;;;;10.40;47.99;101322.03;4927512;29;20051;-67
2022/01/21 06:54:55;;;;;;;1.87;0.73;;;;;;;10.32;48.33;101333.66;4926077;29;20155;-65
2022/01/21 06:57:22;;;;;;;1.37;0.73;;;;;;;10.15;48.52;101331.75;4927329;29;20521;-65
2022/01/21 06:59:49;;;;;;;0.60;0.50;;;;;;;10.25;48.32;101338.56;4927363;29;20058;-67
2022/01/21 07:02:18;;;;;;;0.63;0.63;;;;;;;10.27;48.39;101328.03;4929985;29;20483;-65
2022/01/21 07:04:49;;;;;;;0.75;0.75;;;;;;;10.17;48.59;101339.88;4934345;29;20127;-66
2022/01/21 07:07:20;;;;;;;0.83;0.53;;;;;;;10.13;48.39;101341.50;4933986;29;20055;-65
2022/01/21 07:09:47;;;;;;;2.27;0.73;;;;;;;10.14;48.54;101346.78;4930051;29;20131;-64
2022/01/21 07:12:14;;;;;;;0.73;0.67;;;;;;;10.02;48.47;101318.19;4924978;29;20598;-65
2022/01/21 07:14:41;;;;;;;0.47;0.47;;;;;;;10.19;48.45;101349.66;4930582;29;20107;-65
2022/01/21 07:17:08;;;;;;;1.40;0.90;;;;;;;10.19;48.23;101346.88;4927503;29;20051;-66
2022/01/21 07:19:35;;;;;;;1.03;0.80;;;;;;;10.05;48.05;101302.84;4937502;29;20083;-67
2022/01/21 07:22:03;;;;;;;0.70;0.60;;;;;;;10.00;48.27;101313.97;4906638;29;21637;-65
2022/01/21 07:24:29;;;;;;;0.53;0.50;;;;;;;10.10;48.39;101344.78;4927840;29;20083;-65
2022/01/21 07:26:56;;;;;;;3.03;1.20;;;;;;;10.19;48.20;101355.25;4934501;29;20087;-65
2022/01/21 07:29:24;;;;;;;0.77;0.77;;;;;;;10.09;48.25;101349.53;4932213;29;20512;-65
2022/01/21 07:31:54;;;;;;;1.13;0.60;;;;;;;10.13;48.06;101344.28;4926671;29;20063;-66
2022/01/21 07:34:23;;;;;;;0.63;0.60;;;;;;;10.04;48.30;101357.81;4924496;29;20094;-66
2022/01/21 07:36:51;;;;;;;3.70;1.10;;;;;;;10.02;48.35;101365.63;4935724;29;20475;-67
2022/01/21 07:39:18;;;;;;;0.93;0.77;;;;;;;9.94;48.48;101366.03;4931666;29;20083;-66
2022/01/21 07:41:45;;;;;;;0.83;0.40;;;;;;;9.93;48.48;101354.03;4925585;29;20083;-64
2022/01/21 07:44:12;;;;;;;1.93;1.13;;;;;;;9.94;48.67;101371.63;4922986;29;20147;-65
2022/01/21 07:46:40;;;;;;;1.33;0.83;;;;;;;9.94;48.06;101324.19;4923300;29;20123;-66
2022/01/21 07:49:07;;;;;;;1.53;0.70;;;;;;;10.32;47.52;101364.38;4923158;29;20047;-64
2022/01/21 07:51:35;;;;;;;0.67;0.43;;;;;;;10.16;47.70;101349.34;4925258;29;20138;-65
2022/01/21 07:54:03;;;;;;;0.40;0.40;;;;;;;10.21;47.98;101368.94;4924916;29;20138;-66
2022/01/21 07:56:33;;;;;;;0.73;0.57;;;;;;;10.02;48.24;101368.41;4932585;29;20166;-64
2022/01/21 07:59:03;;;;;;;1.17;0.93;;;;;;;10.01;48.35;101377.88;4926560;29;20082;-65
2022/01/21 08:01:30;;;;;;;1.50;0.60;;;;;;;9.75;48.43;101328.41;4934828;29;20135;-66
2022/01/21 08:03:58;;;;;;;1.23;0.90;;;;;;;10.09;48.25;101369.06;4936726;29;20052;-66
2022/01/21 08:06:25;;;;;;;0.43;0.43;;;;;;;9.99;47.86;101327.06;4935950;29;20139;-66
2022/01/21 08:08:54;;;;;;;1.67;1.03;;;;;;;10.43;47.25;101371.78;4935380;29;20048;-66
2022/01/21 08:11:21;;;;;;;4.70;0.87;;;;;;;10.41;47.39;101376.78;4933438;29;20052;-64
2022/01/21 08:13:49;;;;;;;0.33;0.33;;;;;;;10.50;47.42;101382.78;4928682;29;20098;-65
2022/01/21 08:16:16;;;;;;;2.77;0.83;;;;;;;10.65;47.14;101383.78;4933081;29;20083;-65
2022/01/21 08:18:43;;;;;;;0.40;0.40;;;;;;;10.76;46.76;101384.75;4936015;29;20055;-65
2022/01/21 08:21:18;;;;;;;1.03;0.73;;;;;;;10.93;46.34;101404.22;4931620;29;20545;-65
2022/01/21 08:23:51;;;;;;;0.90;0.90;;;;;;;11.20;45.91;101387.44;4924930;29;20819;-64
2022/01/21 08:26:20;;;;;;;0.77;0.73;;;;;;;11.41;45.28;101394.09;4925403;29;20147;-66
2022/01/21 08:28:47;;;;;;;0.30;0.30;;;;;;;11.58;44.76;101389.19;4932224;29;20082;-65
2022/01/21 08:31:14;;;;;;;4.13;0.70;;;;;;;11.85;44.27;101393.91;4933003;29;20142;-65
2022/01/21 08:33:42;;;;;;;0.93;0.70;;;;;;;12.05;43.84;101390.44;4931773;29;20051;-65
2022/01/21 08:36:10;;;;;;;1.00;0.63;;;;;;;12.35;43.07;101386.97;4963003;28;20488;-65
2022/01/21 08:38:38;;;;;;;0.80;0.80;;;;;;;12.57;42.70;101365.19;4930896;29;20404;-66
2022/01/21 08:41:06;;;;;;;1.13;0.90;;;;;;;12.99;41.90;101400.69;4932242;29;20087;-67
2022/01/21 08:43:33;;;;;;;5.73;1.13;;;;;;;13.22;41.76;101395.66;4924742;29;20066;-66
2022/01/21 08:45:59;;;;;;;0.50;0.50;;;;;;;13.25;41.31;101389.53;4932007;29;20075;-65
2022/01/21 08:48:26;;;;;;;1.13;0.87;;;;;;;13.42;40.69;101389.28;4929324;29;20051;-66
2022/01/21 08:50:55;;;;;;;2.23;1.13;;;;;;;13.51;40.53;101377.22;4929599;29;20143;-66
2022/01/21 08:53:38;;;;;;;0.80;0.80;;;;;;;13.52;39.74;101403.31;4934411;29;20476;-66
2022/01/21 08:56:13;;;;;;;1.93;1.13;;;;;;;13.59;39.80;101360.94;4928542;29;20138;-65
2022/01/21 08:58:42;;;;;;;1.70;1.10;;;;;;;13.85;39.75;101387.88;4931895;29;20163;-66
2022/01/21 09:01:10;;;;;;;1.37;0.97;;;;;;;13.92;38.78;101380.00;4933166;29;20134;-66
2022/01/21 09:03:38;;;;;;;3.00;1.40;;;;;;;13.87;38.67;101365.13;4932712;29;20111;-66
2022/01/21 09:06:06;;;;;;;2.13;1.27;;;;;;;13.85;37.99;101390.69;4926062;29;20071;-66
2022/01/21 09:08:34;;;;;;;1.67;1.03;;;;;;;14.02;38.40;101403.56;4926644;29;20179;-66
2022/01/21 09:11:03;;;;;;;1.90;0.83;;;;;;;14.31;38.32;101410.25;4929108;29;20051;-66
2022/01/21 09:13:34;;;;;;;3.15;1.05;;;;;;;14.64;37.84;101391.06;4921168;29;20396;-66
2022/01/21 09:16:01;;;;;;;0.83;0.83;;;;;;;15.12;37.38;101394.19;4927049;29;20143;-66
2022/01/21 09:18:44;;;;;;;2.53;1.60;;;;;;;15.11;36.93;101386.88;4927336;29;20772;-67
2022/01/21 09:21:31;;;;;;;0.90;0.90;;;;;;;15.20;36.42;101382.31;4923468;29;20056;-65
2022/01/21 09:23:58;;;;;;;0.90;0.90;;;;;;;14.91;36.58;101405.56;4930562;29;20146;-66
2022/01/21 09:26:26;;;;;;;1.27;0.97;;;;;;;15.02;36.43;101388.63;4936227;29;20479;-64
2022/01/21 09:28:56;;;;;;;1.20;1.10;;;;;;;14.44;36.59;101359.06;4947001;29;20118;-64
2022/01/21 09:31:23;;;;;;;2.33;1.57;;;;;;;15.23;36.50;101394.97;4929584;29;20052;-59
2022/01/21 09:34:11;;;;;;;1.10;1.00;;;;;;;15.69;36.17;101398.34;4929273;29;20054;-66
2022/01/21 09:36:38;;;;;;;2.47;1.20;;;;;;;15.68;35.85;101402.25;4931765;29;20134;-64
2022/01/21 09:39:06;;;;;;;1.53;1.40;;;;;;;15.84;35.11;101400.16;4931490;29;20118;-63
2022/01/21 09:41:33;;;;;;;1.10;1.10;;;;;;;16.11;35.12;101402.44;4929455;29;20091;-64
2022/01/21 09:44:04;;;;;;;3.13;1.97;;;;;;;16.18;34.67;101396.47;4925727;29;20447;-64
2022/01/21 09:46:36;;;;;;;3.60;1.53;;;;;;;16.45;34.63;101393.06;4929747;29;20422;-66
2022/01/21 09:49:26;;;;;;;4.17;1.70;;;;;;;16.76;34.04;101390.72;4931074;29;20396;-66
2022/01/21 09:51:57;;;;;;;1.48;1.38;;;;;;;16.95;33.42;101405.69;4926927;29;20565;-65
2022/01/21 09:54:27;;;;;;;2.30;1.80;;;;;;;17.34;33.48;101401.75;4927697;29;20083;-66
2022/01/21 09:56:55;;;;;;;2.72;2.08;;;;;;;18.05;33.47;101393.25;4925039;29;20089;-66
2022/01/21 09:59:26;;;;;;;5.07;1.40;;;;;;;18.67;32.63;101388.94;4927011;29;20139;-65
2022/01/21 10:01:55;;;;;;;;;;;;;;;17.93;31.59;101388.13;4935520;29;20051;-63
2022/01/21 10:04:28;;;;;;;1.73;1.40;;;;;;;17.82;31.86;101392.28;4988217;28;19921;-65
2022/01/21 10:06:56;;;;;;;2.00;1.48;;;;;;;17.46;31.57;101390.00;4958789;29;20681;-65
2022/01/21 10:09:24;;;;;;;3.63;1.83;;;;;;;16.96;32.28;101381.16;4956998;29;20032;-66
2022/01/21 10:11:54;;;;;;;5.47;1.73;;;;;;;17.13;32.18;101395.59;4954626;29;20044;-65
2022/01/21 10:14:24;;;;;;;2.08;1.60;;;;;;;16.85;32.26;101390.88;4955602;28;20042;-66
2022/01/21 10:16:52;;;;;;;2.22;1.80;;;;;;;17.09;32.69;101380.38;4961204;29;20039;-66
2022/01/21 10:19:27;;;;;;;1.92;1.60;;;;;;;17.20;32.14;101386.75;4961485;29;20056;-65
2022/01/21 10:22:04;;;;;;;1.77;1.42;;;;;;;17.09;32.12;101373.91;4957366;29;20054;-67
2022/01/21 10:24:33;;;;;;;1.55;1.20;;;;;;;17.63;32.22;101378.97;4938807;29;20060;-66
2022/01/21 10:27:00;;;;;;;6.53;2.37;;;;;;;17.77;32.05;101367.75;4933515;29;20054;-65
2022/01/21 10:29:36;;;;;;;2.67;1.80;;;;;;;17.84;31.63;101392.78;4931699;29;20389;-66
2022/01/21 10:32:04;;;;;;;0.88;0.88;;;;;;;17.61;31.27;101388.94;4927996;29;20138;-65
2022/01/21 10:34:40;;;;;;;2.33;1.77;;;;;;;17.28;31.66;101378.41;4933734;29;20087;-66
2022/01/21 10:37:30;;;;;;;2.03;1.65;;;;;;;17.40;31.86;101396.84;4930954;29;20088;-67
2022/01/21 10:40:05;;;;;;;2.83;1.92;;;;;;;17.99;31.67;101367.09;4930215;29;20151;-65
2022/01/21 10:42:32;;;;;;;4.05;2.70;;;;;;;18.48;31.35;101376.88;4929473;29;20594;-65
2022/01/21 10:45:00;;;;;;;3.25;1.52;;;;;;;18.59;30.34;101408.63;4928430;29;20056;-65
2022/01/21 10:47:30;;;;;;;5.45;2.10;;;;;;;18.39;29.98;101402.25;4934561;29;20047;-67
2022/01/21 10:50:08;;;;;;;;;;;;;;;18.62;30.39;101399.50;4935458;29;20574;-65
2022/01/21 10:52:39;;;;;;;1.80;1.65;;;;;;;18.41;30.23;101402.75;4929703;29;19973;-66
2022/01/21 10:55:26;;;;;;;1.88;1.63;;;;;;;18.11;30.56;101392.84;4932677;29;20570;-66
2022/01/21 10:58:11;;;;;;;2.42;2.05;;;;;;;18.02;30.58;101389.09;4935615;29;20143;-65
2022/01/21 11:01:01;;;;;;;2.00;1.83;;;;;;;17.96;30.63;101401.63;4933508;29;20086;-65
2022/01/21 11:03:32;;;;;;;1.38;1.27;;;;;;;17.69;30.31;101425.78;4934046;29;20083;-65
2022/01/21 11:06:11;;;;;;;2.53;1.80;;;;;;;17.74;30.48;101403.09;4932400;29;20082;-66
2022/01/21 11:08:38;;;;;;;1.65;1.52;;;;;;;17.84;30.40;101396.44;4933084;29;20181;-66
2022/01/21 11:11:06;;;;;;;2.10;1.90;;;;;;;17.84;30.38;101406.91;4934648;29;20139;-66
2022/01/21 11:13:36;;;;;;;1.60;1.50;;;;;;;17.56;30.85;101406.78;4926568;29;20130;-66
2022/01/21 11:16:20;;;;;;;2.88;1.75;;;;;;;17.43;30.95;101407.53;4929135;29;20155;-66
2022/01/21 11:19:15;;;;;;;3.40;1.85;;;;;;;17.55;30.77;101421.22;4933397;29;20058;-67
2022/01/21 11:21:56;;;;;;;2.40;1.67;;;;;;;17.57;31.06;101419.75;4933342;29;20559;-66
2022/01/21 11:24:26;;;;;;;1.92;1.77;;;;;;;17.68;30.26;101376.09;4932569;29;20126;-66
2022/01/21 11:27:05;;;;;;;3.13;2.05;;;;;;;18.26;30.42;101403.06;4934640;29;20135;-66
2022/01/21 11:29:33;;;;;;;1.70;1.60;;;;;;;18.04;29.58;101400.91;4933958;29;20079;-66
2022/01/21 11:32:01;;;;;;;1.70;1.60;;;;;;;17.90;30.28;101405.69;4928279;29;20143;-66
2022/01/21 11:34:28;;;;;;;3.78;1.95;;;;;;;18.49;30.07;101389.84;4929882;29;20043;-68
2022/01/21 11:36:55;;;;;;;3.70;2.22;;;;;;;18.85;29.53;101392.81;4936313;29;20142;-66
2022/01/21 11:39:29;;;;;;;2.60;2.40;;;;;;;19.09;29.28;101364.25;4933581;29;20058;-66
2022/01/21 11:41:58;;;;;;;2.75;2.10;;;;;;;19.76;28.50;101388.16;4933028;29;20058;-65
2022/01/21 11:44:28;;;;;;;2.60;2.13;;;;;;;19.76;27.99;101383.34;4933342;29;20067;-65
2022/01/21 11:47:15;;;;;;;4.78;2.63;;;;;;;20.46;27.98;101373.22;4926481;29;20146;-66
2022/01/21 11:49:54;;;;;;;2.25;2.05;;;;;;;20.44;27.14;101290.41;4928488;29;20069;-66
2022/01/21 11:52:21;;;;;;;3.38;2.72;;;;;;;21.23;26.71;101373.75;4924674;29;20134;-66
2022/01/21 11:54:49;;;;;;;3.83;2.63;;;;;;;21.55;26.30;101357.44;4927334;29;20546;-65
2022/01/21 11:57:30;;;;;;;5.43;2.78;;;;;;;22.53;25.91;101362.22;4923908;29;20138;-65
2022/01/21 12:00:16;;;;;;;2.10;1.90;;;;;;;22.75;24.50;101366.78;4927118;29;20056;-66
2022/01/21 12:02:50;;;;;;;4.28;2.70;;;;;;;21.86;24.40;101332.44;4925262;29;20754;-66
2022/01/21 12:05:25;;;;;;;3.10;2.72;;;;;;;22.29;24.87;101371.34;4930117;29;20071;-67
2022/01/21 12:07:52;;;;;;;5.15;2.97;;;;;;;23.14;24.77;101370.41;4932504;29;20052;-66
2022/01/21 12:10:25;;;;;;;2.00;1.90;;;;;;;22.93;22.91;101345.56;4933907;29;20083;-67
2022/01/21 12:12:55;;;;;;;4.70;3.00;;;;;;;21.80;23.90;101396.34;4933368;29;20178;-66
2022/01/21 12:15:26;;;;;;;3.58;2.40;;;;;;;21.64;24.41;101361.94;4931983;29;20143;-66
2022/01/21 12:18:33;;;;;;;6.55;3.75;;;;;;;22.14;24.29;101374.69;4930801;29;20130;-66
2022/01/21 12:21:22;;;;;;;2.88;2.58;;;;;;;22.20;24.21;101351.44;4931304;29;20087;-66
2022/01/21 12:23:49;;;;;;;5.83;2.60;;;;;;;22.10;23.81;101368.03;4959186;28;20150;-65
2022/01/21 12:26:18;;;;;;;6.00;2.95;;;;;;;22.68;23.94;101361.63;4933203;29;20623;-66
2022/01/21 12:28:52;;;;;;;2.72;2.53;;;;;;;22.76;23.16;101342.81;4932663;29;20151;-67
2022/01/21 12:31:23;;;;;;;3.92;2.72;;;;;;;22.79;23.57;101362.06;4932397;29;20130;-65
2022/01/21 12:36:22;;;;;;;4.93;3.30;;;;;;;23.85;22.59;101338.94;4926345;29;20048;-65
2022/01/21 12:41:16;;;;;;;4.55;3.10;;;;;;;24.23;22.40;101351.28;4930633;29;20098;-66